sensor_id;sensor_type;location;lat;lon;timestamp;P1;durP1;ratioP1;P2;durP2;ratioP2
18200;SDS011;9226;47.858;9.594;2023-10-09T00:00:15;15.40;;;4.17;;
18200;SDS011;9226;47.858;9.594;2023-10-09T00:03:01;15.07;;;4.53;;
18200;SDS011;9226;47.858;9.594;2023-10-09T00:05:28;20.93;;;4.33;;
18200;SDS011;9226;47.858;9.594;2023-10-09T00:08:11;20.37;;;4.80;;
18200;SDS011;9226;47.858;9.594;2023-10-09T00:10:56;13.63;;;4.50;;
18200;SDS011;9226;47.858;9.594;2023-10-09T00:13:24;20.03;;;4.23;;
18200;SDS011;9226;47.858;9.594;2023-10-09T00:15:56;25.20;;;5.13;;
18200;SDS011;9226;47.858;9.594;2023-10-09T00:18:26;18.83;;;3.93;;
18200;SDS011;9226;47.858;9.594;2023-10-09T00:20:58;17.17;;;3.87;;
18200;SDS011;9226;47.858;9.594;2023-10-09T00:23:36;17.00;;;4.17;;
18200;SDS011;9226;47.858;9.594;2023-10-09T00:26:02;21.57;;;4.53;;
18200;SDS011;9226;47.858;9.594;2023-10-09T00:28:38;15.60;;;3.70;;
18200;SDS011;9226;47.858;9.594;2023-10-09T00:31:09;15.13;;;3.27;;
18200;SDS011;9226;47.858;9.594;2023-10-09T00:33:44;17.67;;;5.03;;
18200;SDS011;9226;47.858;9.594;2023-10-09T00:36:09;17.77;;;4.50;;
18200;SDS011;9226;47.858;9.594;2023-10-09T00:38:38;13.77;;;4.07;;
18200;SDS011;9226;47.858;9.594;2023-10-09T00:41:30;19.20;;;4.10;;
18200;SDS011;9226;47.858;9.594;2023-10-09T00:44:00;14.47;;;3.80;;
18200;SDS011;9226;47.858;9.594;2023-10-09T00:46:25;14.57;;;3.63;;
18200;SDS011;9226;47.858;9.594;2023-10-09T00:48:56;11.13;;;3.70;;
18200;SDS011;9226;47.858;9.594;2023-10-09T00:51:24;22.23;;;4.13;;
18200;SDS011;9226;47.858;9.594;2023-10-09T00:53:52;14.47;;;4.17;;
18200;SDS011;9226;47.858;9.594;2023-10-09T00:56:22;13.90;;;3.50;;
18200;SDS011;9226;47.858;9.594;2023-10-09T00:58:51;17.30;;;4.93;;
18200;SDS011;9226;47.858;9.594;2023-10-09T01:01:24;20.60;;;5.03;;
18200;SDS011;9226;47.858;9.594;2023-10-09T01:03:53;14.80;;;4.27;;
18200;SDS011;9226;47.858;9.594;2023-10-09T01:06:19;11.80;;;4.10;;
18200;SDS011;9226;47.858;9.594;2023-10-09T01:08:58;13.27;;;5.00;;
18200;SDS011;9226;47.858;9.594;2023-10-09T01:11:37;17.53;;;4.03;;
18200;SDS011;9226;47.858;9.594;2023-10-09T01:14:21;15.83;;;4.20;;
18200;SDS011;9226;47.858;9.594;2023-10-09T01:16:47;16.50;;;4.30;;
18200;SDS011;9226;47.858;9.594;2023-10-09T01:19:13;17.37;;;4.57;;
18200;SDS011;9226;47.858;9.594;2023-10-09T01:21:48;19.20;;;4.00;;
18200;SDS011;9226;47.858;9.594;2023-10-09T01:24:17;17.23;;;3.97;;
18200;SDS011;9226;47.858;9.594;2023-10-09T01:26:44;13.17;;;4.30;;
18200;SDS011;9226;47.858;9.594;2023-10-09T01:31:46;24.43;;;4.70;;
18200;SDS011;9226;47.858;9.594;2023-10-09T01:34:22;21.67;;;3.80;;
18200;SDS011;9226;47.858;9.594;2023-10-09T01:37:04;15.50;;;3.77;;
18200;SDS011;9226;47.858;9.594;2023-10-09T01:39:36;17.33;;;3.60;;
18200;SDS011;9226;47.858;9.594;2023-10-09T01:42:05;15.43;;;3.97;;
18200;SDS011;9226;47.858;9.594;2023-10-09T01:44:31;19.23;;;4.10;;
18200;SDS011;9226;47.858;9.594;2023-10-09T01:47:03;14.10;;;3.30;;
18200;SDS011;9226;47.858;9.594;2023-10-09T01:49:36;14.37;;;3.70;;
18200;SDS011;9226;47.858;9.594;2023-10-09T01:52:08;13.30;;;3.37;;
18200;SDS011;9226;47.858;9.594;2023-10-09T01:54:37;16.47;;;3.80;;
18200;SDS011;9226;47.858;9.594;2023-10-09T01:57:06;15.23;;;3.70;;
18200;SDS011;9226;47.858;9.594;2023-10-09T01:59:40;13.83;;;4.23;;
18200;SDS011;9226;47.858;9.594;2023-10-09T02:02:13;21.93;;;3.63;;
18200;SDS011;9226;47.858;9.594;2023-10-09T02:04:53;19.93;;;4.23;;
18200;SDS011;9226;47.858;9.594;2023-10-09T02:07:30;16.93;;;4.53;;
18200;SDS011;9226;47.858;9.594;2023-10-09T02:10:05;17.90;;;4.53;;
18200;SDS011;9226;47.858;9.594;2023-10-09T02:12:36;23.43;;;4.63;;
18200;SDS011;9226;47.858;9.594;2023-10-09T02:15:02;15.30;;;3.97;;
18200;SDS011;9226;47.858;9.594;2023-10-09T02:17:40;22.50;;;3.83;;
18200;SDS011;9226;47.858;9.594;2023-10-09T02:20:17;17.17;;;4.03;;
18200;SDS011;9226;47.858;9.594;2023-10-09T02:22:53;15.57;;;3.60;;
18200;SDS011;9226;47.858;9.594;2023-10-09T02:25:19;16.13;;;3.63;;
18200;SDS011;9226;47.858;9.594;2023-10-09T02:27:47;25.23;;;3.83;;
18200;SDS011;9226;47.858;9.594;2023-10-09T02:30:18;16.27;;;3.80;;
18200;SDS011;9226;47.858;9.594;2023-10-09T02:32:52;18.67;;;4.73;;
18200;SDS011;9226;47.858;9.594;2023-10-09T02:35:19;15.70;;;3.60;;
18200;SDS011;9226;47.858;9.594;2023-10-09T02:38:04;17.73;;;3.53;;
18200;SDS011;9226;47.858;9.594;2023-10-09T02:40:35;17.27;;;3.30;;
18200;SDS011;9226;47.858;9.594;2023-10-09T02:43:07;13.00;;;3.53;;
18200;SDS011;9226;47.858;9.594;2023-10-09T02:45:42;24.90;;;4.57;;
18200;SDS011;9226;47.858;9.594;2023-10-09T02:48:15;14.07;;;3.50;;
18200;SDS011;9226;47.858;9.594;2023-10-09T02:50:44;14.67;;;3.70;;
18200;SDS011;9226;47.858;9.594;2023-10-09T02:53:09;13.60;;;3.67;;
18200;SDS011;9226;47.858;9.594;2023-10-09T02:55:43;13.93;;;3.50;;
18200;SDS011;9226;47.858;9.594;2023-10-09T02:58:18;17.73;;;3.77;;
18200;SDS011;9226;47.858;9.594;2023-10-09T03:00:46;19.67;;;3.47;;
18200;SDS011;9226;47.858;9.594;2023-10-09T03:03:13;17.27;;;3.60;;
18200;SDS011;9226;47.858;9.594;2023-10-09T03:05:42;22.13;;;3.70;;
18200;SDS011;9226;47.858;9.594;2023-10-09T03:08:08;17.47;;;3.33;;
18200;SDS011;9226;47.858;9.594;2023-10-09T03:10:37;14.00;;;3.67;;
18200;SDS011;9226;47.858;9.594;2023-10-09T03:13:03;17.40;;;3.17;;
18200;SDS011;9226;47.858;9.594;2023-10-09T03:15:31;18.97;;;3.77;;
18200;SDS011;9226;47.858;9.594;2023-10-09T03:18:01;14.37;;;3.20;;
18200;SDS011;9226;47.858;9.594;2023-10-09T03:20:27;14.93;;;3.17;;
18200;SDS011;9226;47.858;9.594;2023-10-09T03:22:55;18.13;;;3.47;;
18200;SDS011;9226;47.858;9.594;2023-10-09T03:25:20;15.60;;;4.03;;
18200;SDS011;9226;47.858;9.594;2023-10-09T03:27:50;20.40;;;3.80;;
18200;SDS011;9226;47.858;9.594;2023-10-09T03:30:18;12.23;;;3.93;;
18200;SDS011;9226;47.858;9.594;2023-10-09T03:32:48;15.57;;;3.77;;
18200;SDS011;9226;47.858;9.594;2023-10-09T03:35:19;17.47;;;3.70;;
18200;SDS011;9226;47.858;9.594;2023-10-09T03:37:50;11.87;;;3.77;;
18200;SDS011;9226;47.858;9.594;2023-10-09T03:40:16;13.20;;;3.30;;
18200;SDS011;9226;47.858;9.594;2023-10-09T03:42:43;14.77;;;3.27;;
18200;SDS011;9226;47.858;9.594;2023-10-09T03:45:09;15.20;;;3.73;;
18200;SDS011;9226;47.858;9.594;2023-10-09T03:47:43;12.83;;;3.53;;
18200;SDS011;9226;47.858;9.594;2023-10-09T03:50:09;12.90;;;4.10;;
18200;SDS011;9226;47.858;9.594;2023-10-09T03:52:48;14.23;;;3.40;;
18200;SDS011;9226;47.858;9.594;2023-10-09T03:55:15;15.73;;;4.17;;
18200;SDS011;9226;47.858;9.594;2023-10-09T03:57:40;15.83;;;3.63;;
18200;SDS011;9226;47.858;9.594;2023-10-09T04:00:06;16.77;;;3.50;;
18200;SDS011;9226;47.858;9.594;2023-10-09T04:02:38;14.73;;;3.43;;
18200;SDS011;9226;47.858;9.594;2023-10-09T04:05:04;22.87;;;4.20;;
18200;SDS011;9226;47.858;9.594;2023-10-09T04:07:32;18.13;;;3.80;;
18200;SDS011;9226;47.858;9.594;2023-10-09T04:09:58;17.37;;;4.10;;
18200;SDS011;9226;47.858;9.594;2023-10-09T04:12:44;11.00;;;3.80;;
18200;SDS011;9226;47.858;9.594;2023-10-09T04:15:09;14.83;;;3.83;;
18200;SDS011;9226;47.858;9.594;2023-10-09T04:17:40;16.80;;;4.67;;
18200;SDS011;9226;47.858;9.594;2023-10-09T04:20:08;20.47;;;4.50;;
18200;SDS011;9226;47.858;9.594;2023-10-09T04:22:43;19.03;;;4.47;;
18200;SDS011;9226;47.858;9.594;2023-10-09T04:25:27;22.87;;;4.07;;
18200;SDS011;9226;47.858;9.594;2023-10-09T04:28:06;16.77;;;4.17;;
18200;SDS011;9226;47.858;9.594;2023-10-09T04:30:43;25.63;;;5.00;;
18200;SDS011;9226;47.858;9.594;2023-10-09T04:33:12;18.90;;;4.77;;
18200;SDS011;9226;47.858;9.594;2023-10-09T04:36:03;14.53;;;4.13;;
18200;SDS011;9226;47.858;9.594;2023-10-09T04:38:49;25.77;;;5.20;;
18200;SDS011;9226;47.858;9.594;2023-10-09T04:41:29;25.97;;;5.80;;
18200;SDS011;9226;47.858;9.594;2023-10-09T04:44:16;19.30;;;5.33;;
18200;SDS011;9226;47.858;9.594;2023-10-09T04:46:54;23.93;;;6.10;;
18200;SDS011;9226;47.858;9.594;2023-10-09T04:49:36;20.97;;;5.90;;
18200;SDS011;9226;47.858;9.594;2023-10-09T04:52:26;20.50;;;6.50;;
18200;SDS011;9226;47.858;9.594;2023-10-09T04:54:54;22.87;;;5.93;;
18200;SDS011;9226;47.858;9.594;2023-10-09T04:57:33;20.73;;;5.23;;
18200;SDS011;9226;47.858;9.594;2023-10-09T05:00:19;22.07;;;5.60;;
18200;SDS011;9226;47.858;9.594;2023-10-09T05:02:54;22.60;;;5.90;;
18200;SDS011;9226;47.858;9.594;2023-10-09T05:05:29;25.43;;;6.13;;
18200;SDS011;9226;47.858;9.594;2023-10-09T05:10:59;20.67;;;6.80;;
18200;SDS011;9226;47.858;9.594;2023-10-09T05:13:26;17.83;;;6.10;;
18200;SDS011;9226;47.858;9.594;2023-10-09T05:16:05;19.43;;;6.27;;
18200;SDS011;9226;47.858;9.594;2023-10-09T05:18:48;12.63;;;4.60;;
18200;SDS011;9226;47.858;9.594;2023-10-09T05:21:34;21.73;;;6.03;;
18200;SDS011;9226;47.858;9.594;2023-10-09T05:24:12;21.57;;;5.70;;
18200;SDS011;9226;47.858;9.594;2023-10-09T05:31:57;22.03;;;5.70;;
18200;SDS011;9226;47.858;9.594;2023-10-09T05:34:39;24.40;;;5.80;;
18200;SDS011;9226;47.858;9.594;2023-10-09T05:39:57;23.10;;;5.43;;
18200;SDS011;9226;47.858;9.594;2023-10-09T05:42:27;18.40;;;5.07;;
18200;SDS011;9226;47.858;9.594;2023-10-09T05:45:08;19.50;;;5.50;;
18200;SDS011;9226;47.858;9.594;2023-10-09T05:47:51;22.87;;;6.00;;
18200;SDS011;9226;47.858;9.594;2023-10-09T05:50:44;23.77;;;6.07;;
18200;SDS011;9226;47.858;9.594;2023-10-09T05:53:41;28.63;;;6.77;;
18200;SDS011;9226;47.858;9.594;2023-10-09T05:56:09;27.00;;;7.20;;
18200;SDS011;9226;47.858;9.594;2023-10-09T05:58:54;25.77;;;8.83;;
18200;SDS011;9226;47.858;9.594;2023-10-09T06:01:31;29.33;;;8.57;;
18200;SDS011;9226;47.858;9.594;2023-10-09T06:04:15;23.07;;;8.73;;
18200;SDS011;9226;47.858;9.594;2023-10-09T06:06:43;27.57;;;9.23;;
18200;SDS011;9226;47.858;9.594;2023-10-09T06:09:11;26.67;;;8.63;;
18200;SDS011;9226;47.858;9.594;2023-10-09T06:11:44;23.97;;;9.07;;
18200;SDS011;9226;47.858;9.594;2023-10-09T06:14:20;34.23;;;9.60;;
18200;SDS011;9226;47.858;9.594;2023-10-09T06:16:54;21.07;;;8.97;;
18200;SDS011;9226;47.858;9.594;2023-10-09T06:19:26;23.23;;;8.97;;
18200;SDS011;9226;47.858;9.594;2023-10-09T06:21:59;21.93;;;9.00;;
18200;SDS011;9226;47.858;9.594;2023-10-09T06:24:24;27.17;;;8.77;;
18200;SDS011;9226;47.858;9.594;2023-10-09T06:27:07;28.70;;;8.77;;
18200;SDS011;9226;47.858;9.594;2023-10-09T06:29:36;24.10;;;9.30;;
18200;SDS011;9226;47.858;9.594;2023-10-09T06:32:14;22.67;;;8.40;;
18200;SDS011;9226;47.858;9.594;2023-10-09T06:34:58;28.70;;;9.60;;
18200;SDS011;9226;47.858;9.594;2023-10-09T06:37:46;27.33;;;9.37;;
18200;SDS011;9226;47.858;9.594;2023-10-09T06:40:38;27.97;;;8.57;;
18200;SDS011;9226;47.858;9.594;2023-10-09T06:43:13;27.60;;;8.87;;
18200;SDS011;9226;47.858;9.594;2023-10-09T06:45:55;21.23;;;7.70;;
18200;SDS011;9226;47.858;9.594;2023-10-09T06:48:40;24.13;;;7.87;;
18200;SDS011;9226;47.858;9.594;2023-10-09T06:51:10;19.50;;;7.57;;
18200;SDS011;9226;47.858;9.594;2023-10-09T06:56:28;25.27;;;8.30;;
18200;SDS011;9226;47.858;9.594;2023-10-09T06:59:04;22.97;;;7.20;;
18200;SDS011;9226;47.858;9.594;2023-10-09T07:01:49;18.40;;;7.23;;
18200;SDS011;9226;47.858;9.594;2023-10-09T07:04:36;22.90;;;7.03;;
18200;SDS011;9226;47.858;9.594;2023-10-09T07:07:02;25.07;;;6.70;;
18200;SDS011;9226;47.858;9.594;2023-10-09T07:09:32;24.27;;;7.03;;
18200;SDS011;9226;47.858;9.594;2023-10-09T07:12:10;20.93;;;6.97;;
18200;SDS011;9226;47.858;9.594;2023-10-09T07:14:45;14.83;;;6.50;;
18200;SDS011;9226;47.858;9.594;2023-10-09T07:17:11;14.53;;;6.83;;
18200;SDS011;9226;47.858;9.594;2023-10-09T07:20:12;22.50;;;6.13;;
18200;SDS011;9226;47.858;9.594;2023-10-09T07:23:00;13.23;;;6.00;;
18200;SDS011;9226;47.858;9.594;2023-10-09T07:25:39;15.17;;;5.70;;
18200;SDS011;9226;47.858;9.594;2023-10-09T07:28:08;15.77;;;6.70;;
18200;SDS011;9226;47.858;9.594;2023-10-09T07:30:47;19.27;;;6.73;;
18200;SDS011;9226;47.858;9.594;2023-10-09T07:33:12;16.93;;;6.50;;
18200;SDS011;9226;47.858;9.594;2023-10-09T07:35:39;18.77;;;6.57;;
18200;SDS011;9226;47.858;9.594;2023-10-09T07:38:12;18.73;;;6.47;;
18200;SDS011;9226;47.858;9.594;2023-10-09T07:40:45;16.53;;;6.73;;
18200;SDS011;9226;47.858;9.594;2023-10-09T07:43:24;17.43;;;7.80;;
18200;SDS011;9226;47.858;9.594;2023-10-09T07:46:04;16.70;;;5.63;;
18200;SDS011;9226;47.858;9.594;2023-10-09T07:48:31;18.93;;;5.93;;
18200;SDS011;9226;47.858;9.594;2023-10-09T07:51:18;15.80;;;6.53;;
18200;SDS011;9226;47.858;9.594;2023-10-09T07:53:48;26.03;;;7.80;;
18200;SDS011;9226;47.858;9.594;2023-10-09T07:56:23;15.97;;;6.10;;
18200;SDS011;9226;47.858;9.594;2023-10-09T07:58:49;16.10;;;5.87;;
18200;SDS011;9226;47.858;9.594;2023-10-09T08:01:15;16.43;;;5.50;;
18200;SDS011;9226;47.858;9.594;2023-10-09T08:03:47;12.93;;;5.10;;
18200;SDS011;9226;47.858;9.594;2023-10-09T08:06:22;13.57;;;5.53;;
18200;SDS011;9226;47.858;9.594;2023-10-09T08:09:09;19.93;;;6.37;;
18200;SDS011;9226;47.858;9.594;2023-10-09T08:11:56;22.57;;;6.00;;
18200;SDS011;9226;47.858;9.594;2023-10-09T08:14:43;23.50;;;6.47;;
18200;SDS011;9226;47.858;9.594;2023-10-09T08:17:10;19.77;;;5.83;;
18200;SDS011;9226;47.858;9.594;2023-10-09T08:19:52;18.37;;;6.23;;
18200;SDS011;9226;47.858;9.594;2023-10-09T08:22:36;20.87;;;5.87;;
18200;SDS011;9226;47.858;9.594;2023-10-09T08:25:08;19.73;;;6.10;;
18200;SDS011;9226;47.858;9.594;2023-10-09T08:27:51;25.93;;;5.57;;
18200;SDS011;9226;47.858;9.594;2023-10-09T08:30:20;21.07;;;6.43;;
18200;SDS011;9226;47.858;9.594;2023-10-09T08:32:47;18.40;;;5.67;;
18200;SDS011;9226;47.858;9.594;2023-10-09T08:35:47;18.00;;;5.13;;
18200;SDS011;9226;47.858;9.594;2023-10-09T08:38:16;17.70;;;5.27;;
18200;SDS011;9226;47.858;9.594;2023-10-09T08:40:48;15.37;;;5.00;;
18200;SDS011;9226;47.858;9.594;2023-10-09T08:46:02;13.33;;;5.00;;
18200;SDS011;9226;47.858;9.594;2023-10-09T08:48:27;18.33;;;6.03;;
18200;SDS011;9226;47.858;9.594;2023-10-09T08:50:54;19.70;;;6.23;;
18200;SDS011;9226;47.858;9.594;2023-10-09T08:53:21;15.87;;;5.77;;
18200;SDS011;9226;47.858;9.594;2023-10-09T08:55:49;16.90;;;6.17;;
18200;SDS011;9226;47.858;9.594;2023-10-09T08:58:16;17.47;;;5.53;;
18200;SDS011;9226;47.858;9.594;2023-10-09T09:00:50;22.13;;;6.43;;
18200;SDS011;9226;47.858;9.594;2023-10-09T09:03:17;19.80;;;6.70;;
18200;SDS011;9226;47.858;9.594;2023-10-09T09:05:45;13.93;;;5.73;;
18200;SDS011;9226;47.858;9.594;2023-10-09T09:08:23;22.00;;;6.77;;
18200;SDS011;9226;47.858;9.594;2023-10-09T09:10:57;19.73;;;5.70;;
18200;SDS011;9226;47.858;9.594;2023-10-09T09:13:40;18.57;;;5.17;;
18200;SDS011;9226;47.858;9.594;2023-10-09T09:19:04;20.53;;;5.73;;
18200;SDS011;9226;47.858;9.594;2023-10-09T09:21:34;18.73;;;5.80;;
18200;SDS011;9226;47.858;9.594;2023-10-09T09:24:11;22.93;;;5.60;;
18200;SDS011;9226;47.858;9.594;2023-10-09T09:26:46;21.30;;;5.33;;
18200;SDS011;9226;47.858;9.594;2023-10-09T09:29:23;17.87;;;4.80;;
18200;SDS011;9226;47.858;9.594;2023-10-09T09:31:56;18.87;;;5.57;;
18200;SDS011;9226;47.858;9.594;2023-10-09T09:34:47;23.10;;;5.37;;
18200;SDS011;9226;47.858;9.594;2023-10-09T09:37:20;16.57;;;5.33;;
18200;SDS011;9226;47.858;9.594;2023-10-09T09:39:54;13.87;;;5.20;;
18200;SDS011;9226;47.858;9.594;2023-10-09T09:42:23;26.03;;;5.70;;
18200;SDS011;9226;47.858;9.594;2023-10-09T09:44:52;22.67;;;5.60;;
18200;SDS011;9226;47.858;9.594;2023-10-09T09:47:19;22.20;;;4.90;;
18200;SDS011;9226;47.858;9.594;2023-10-09T09:49:52;20.43;;;5.23;;
18200;SDS011;9226;47.858;9.594;2023-10-09T09:52:25;25.50;;;4.83;;
18200;SDS011;9226;47.858;9.594;2023-10-09T09:54:52;20.73;;;5.80;;
18200;SDS011;9226;47.858;9.594;2023-10-09T09:57:18;25.03;;;6.47;;
18200;SDS011;9226;47.858;9.594;2023-10-09T09:59:51;19.57;;;5.20;;
18200;SDS011;9226;47.858;9.594;2023-10-09T10:02:32;13.43;;;5.03;;
18200;SDS011;9226;47.858;9.594;2023-10-09T10:05:02;20.43;;;5.53;;
18200;SDS011;9226;47.858;9.594;2023-10-09T10:07:32;21.47;;;5.20;;
18200;SDS011;9226;47.858;9.594;2023-10-09T10:13:12;13.80;;;4.50;;
18200;SDS011;9226;47.858;9.594;2023-10-09T10:15:59;16.47;;;5.20;;
18200;SDS011;9226;47.858;9.594;2023-10-09T10:18:52;21.10;;;5.77;;
18200;SDS011;9226;47.858;9.594;2023-10-09T10:21:17;21.00;;;5.07;;
18200;SDS011;9226;47.858;9.594;2023-10-09T10:23:58;20.37;;;4.87;;
18200;SDS011;9226;47.858;9.594;2023-10-09T10:26:47;18.17;;;4.80;;
18200;SDS011;9226;47.858;9.594;2023-10-09T10:35:18;28.47;;;5.23;;
18200;SDS011;9226;47.858;9.594;2023-10-09T10:41:18;12.10;;;4.60;;
18200;SDS011;9226;47.858;9.594;2023-10-09T10:43:48;16.83;;;4.20;;
18200;SDS011;9226;47.858;9.594;2023-10-09T10:46:20;22.70;;;4.97;;
18200;SDS011;9226;47.858;9.594;2023-10-09T10:49:02;16.17;;;4.83;;
18200;SDS011;9226;47.858;9.594;2023-10-09T10:51:41;22.40;;;4.67;;
18200;SDS011;9226;47.858;9.594;2023-10-09T10:54:19;24.50;;;4.17;;
18200;SDS011;9226;47.858;9.594;2023-10-09T10:57:19;17.40;;;4.17;;
18200;SDS011;9226;47.858;9.594;2023-10-09T10:59:57;12.90;;;3.50;;
18200;SDS011;9226;47.858;9.594;2023-10-09T11:02:37;23.93;;;4.67;;
18200;SDS011;9226;47.858;9.594;2023-10-09T11:05:05;19.40;;;5.10;;
18200;SDS011;9226;47.858;9.594;2023-10-09T11:07:49;18.37;;;3.97;;
18200;SDS011;9226;47.858;9.594;2023-10-09T11:10:21;14.63;;;3.67;;
18200;SDS011;9226;47.858;9.594;2023-10-09T11:12:53;17.77;;;3.97;;
18200;SDS011;9226;47.858;9.594;2023-10-09T11:15:35;19.00;;;3.80;;
18200;SDS011;9226;47.858;9.594;2023-10-09T11:18:12;18.23;;;3.60;;
18200;SDS011;9226;47.858;9.594;2023-10-09T11:20:48;17.50;;;4.00;;
18200;SDS011;9226;47.858;9.594;2023-10-09T11:23:41;17.30;;;4.53;;
18200;SDS011;9226;47.858;9.594;2023-10-09T11:26:23;18.67;;;3.93;;
18200;SDS011;9226;47.858;9.594;2023-10-09T11:31:42;20.20;;;3.83;;
18200;SDS011;9226;47.858;9.594;2023-10-09T11:34:22;19.27;;;4.33;;
18200;SDS011;9226;47.858;9.594;2023-10-09T11:36:55;16.83;;;4.47;;
18200;SDS011;9226;47.858;9.594;2023-10-09T11:39:26;20.50;;;3.93;;
18200;SDS011;9226;47.858;9.594;2023-10-09T11:42:15;15.77;;;4.10;;
18200;SDS011;9226;47.858;9.594;2023-10-09T11:45:00;11.00;;;3.97;;
18200;SDS011;9226;47.858;9.594;2023-10-09T11:47:34;17.57;;;4.30;;
18200;SDS011;9226;47.858;9.594;2023-10-09T11:50:00;22.73;;;4.20;;
18200;SDS011;9226;47.858;9.594;2023-10-09T11:52:29;19.97;;;4.67;;
18200;SDS011;9226;47.858;9.594;2023-10-09T11:55:03;15.70;;;3.50;;
18200;SDS011;9226;47.858;9.594;2023-10-09T11:57:31;15.23;;;3.17;;
18200;SDS011;9226;47.858;9.594;2023-10-09T12:00:03;12.10;;;2.80;;
18200;SDS011;9226;47.858;9.594;2023-10-09T12:02:49;10.97;;;3.37;;
18200;SDS011;9226;47.858;9.594;2023-10-09T12:05:15;14.07;;;3.77;;
18200;SDS011;9226;47.858;9.594;2023-10-09T12:07:43;16.43;;;3.57;;
18200;SDS011;9226;47.858;9.594;2023-10-09T12:10:09;21.83;;;3.60;;
18200;SDS011;9226;47.858;9.594;2023-10-09T12:12:36;16.03;;;4.00;;
18200;SDS011;9226;47.858;9.594;2023-10-09T12:15:02;17.20;;;3.07;;
18200;SDS011;9226;47.858;9.594;2023-10-09T12:17:30;18.37;;;3.17;;
18200;SDS011;9226;47.858;9.594;2023-10-09T12:19:55;16.13;;;3.60;;
18200;SDS011;9226;47.858;9.594;2023-10-09T12:22:21;12.37;;;3.63;;
18200;SDS011;9226;47.858;9.594;2023-10-09T12:24:47;17.10;;;3.67;;
18200;SDS011;9226;47.858;9.594;2023-10-09T12:27:12;15.17;;;4.20;;
18200;SDS011;9226;47.858;9.594;2023-10-09T12:29:38;18.90;;;3.50;;
18200;SDS011;9226;47.858;9.594;2023-10-09T12:32:09;18.63;;;3.57;;
18200;SDS011;9226;47.858;9.594;2023-10-09T12:34:35;24.73;;;3.13;;
18200;SDS011;9226;47.858;9.594;2023-10-09T12:37:03;17.83;;;3.50;;
18200;SDS011;9226;47.858;9.594;2023-10-09T12:39:29;21.80;;;4.00;;
18200;SDS011;9226;47.858;9.594;2023-10-09T12:42:01;16.03;;;3.77;;
18200;SDS011;9226;47.858;9.594;2023-10-09T12:44:37;17.80;;;2.80;;
18200;SDS011;9226;47.858;9.594;2023-10-09T12:47:05;25.93;;;3.90;;
18200;SDS011;9226;47.858;9.594;2023-10-09T12:49:31;17.43;;;4.40;;
18200;SDS011;9226;47.858;9.594;2023-10-09T12:51:57;16.50;;;3.40;;
18200;SDS011;9226;47.858;9.594;2023-10-09T12:54:26;9.93;;;3.20;;
18200;SDS011;9226;47.858;9.594;2023-10-09T12:56:53;21.90;;;3.60;;
18200;SDS011;9226;47.858;9.594;2023-10-09T12:59:22;14.80;;;3.77;;
18200;SDS011;9226;47.858;9.594;2023-10-09T13:01:49;15.43;;;3.43;;
18200;SDS011;9226;47.858;9.594;2023-10-09T13:04:18;17.23;;;4.67;;
18200;SDS011;9226;47.858;9.594;2023-10-09T13:06:47;22.40;;;5.03;;
18200;SDS011;9226;47.858;9.594;2023-10-09T13:09:17;17.23;;;3.80;;
18200;SDS011;9226;47.858;9.594;2023-10-09T13:12:07;16.53;;;3.30;;
18200;SDS011;9226;47.858;9.594;2023-10-09T13:14:33;15.83;;;3.50;;
18200;SDS011;9226;47.858;9.594;2023-10-09T13:17:00;16.00;;;3.33;;
18200;SDS011;9226;47.858;9.594;2023-10-09T13:19:33;14.90;;;3.60;;
18200;SDS011;9226;47.858;9.594;2023-10-09T13:21:58;16.20;;;3.50;;
18200;SDS011;9226;47.858;9.594;2023-10-09T13:24:28;14.97;;;3.60;;
18200;SDS011;9226;47.858;9.594;2023-10-09T13:26:55;22.63;;;3.47;;
18200;SDS011;9226;47.858;9.594;2023-10-09T13:29:23;17.17;;;3.20;;
18200;SDS011;9226;47.858;9.594;2023-10-09T13:31:49;21.90;;;3.80;;
18200;SDS011;9226;47.858;9.594;2023-10-09T13:34:17;18.80;;;3.90;;
18200;SDS011;9226;47.858;9.594;2023-10-09T13:36:43;23.10;;;4.17;;
18200;SDS011;9226;47.858;9.594;2023-10-09T13:39:23;15.13;;;3.40;;
18200;SDS011;9226;47.858;9.594;2023-10-09T13:41:50;10.37;;;3.57;;
18200;SDS011;9226;47.858;9.594;2023-10-09T13:44:23;19.97;;;4.10;;
18200;SDS011;9226;47.858;9.594;2023-10-09T13:46:58;15.03;;;3.40;;
18200;SDS011;9226;47.858;9.594;2023-10-09T13:49:31;14.63;;;3.80;;
18200;SDS011;9226;47.858;9.594;2023-10-09T13:51:57;15.77;;;3.17;;
18200;SDS011;9226;47.858;9.594;2023-10-09T13:54:23;15.67;;;3.43;;
18200;SDS011;9226;47.858;9.594;2023-10-09T13:56:58;13.50;;;3.90;;
18200;SDS011;9226;47.858;9.594;2023-10-09T13:59:24;15.77;;;4.63;;
18200;SDS011;9226;47.858;9.594;2023-10-09T14:01:55;16.67;;;3.40;;
18200;SDS011;9226;47.858;9.594;2023-10-09T14:04:21;17.07;;;3.80;;
18200;SDS011;9226;47.858;9.594;2023-10-09T14:06:48;13.67;;;3.80;;
18200;SDS011;9226;47.858;9.594;2023-10-09T14:09:14;26.83;;;7.30;;
18200;SDS011;9226;47.858;9.594;2023-10-09T14:12:02;34.80;;;7.90;;
18200;SDS011;9226;47.858;9.594;2023-10-09T14:14:38;19.87;;;5.67;;
18200;SDS011;9226;47.858;9.594;2023-10-09T14:17:06;16.50;;;4.37;;
18200;SDS011;9226;47.858;9.594;2023-10-09T14:19:57;12.37;;;3.60;;
18200;SDS011;9226;47.858;9.594;2023-10-09T14:22:41;22.30;;;4.47;;
18200;SDS011;9226;47.858;9.594;2023-10-09T14:25:06;17.07;;;3.70;;
18200;SDS011;9226;47.858;9.594;2023-10-09T14:27:40;12.50;;;3.27;;
18200;SDS011;9226;47.858;9.594;2023-10-09T14:30:06;17.77;;;3.60;;
18200;SDS011;9226;47.858;9.594;2023-10-09T14:32:37;22.60;;;4.10;;
18200;SDS011;9226;47.858;9.594;2023-10-09T14:35:09;15.33;;;3.80;;
18200;SDS011;9226;47.858;9.594;2023-10-09T14:37:40;15.63;;;4.13;;
18200;SDS011;9226;47.858;9.594;2023-10-09T14:40:07;15.07;;;3.63;;
18200;SDS011;9226;47.858;9.594;2023-10-09T14:42:38;18.43;;;3.67;;
18200;SDS011;9226;47.858;9.594;2023-10-09T14:45:26;16.33;;;3.97;;
18200;SDS011;9226;47.858;9.594;2023-10-09T14:47:52;16.67;;;3.77;;
18200;SDS011;9226;47.858;9.594;2023-10-09T14:50:19;19.87;;;3.80;;
18200;SDS011;9226;47.858;9.594;2023-10-09T14:52:47;9.93;;;3.27;;
18200;SDS011;9226;47.858;9.594;2023-10-09T14:55:15;23.90;;;3.67;;
18200;SDS011;9226;47.858;9.594;2023-10-09T14:57:46;23.70;;;3.63;;
18200;SDS011;9226;47.858;9.594;2023-10-09T15:00:14;16.97;;;3.57;;
18200;SDS011;9226;47.858;9.594;2023-10-09T15:02:40;17.50;;;3.63;;
18200;SDS011;9226;47.858;9.594;2023-10-09T15:05:06;16.33;;;3.87;;
18200;SDS011;9226;47.858;9.594;2023-10-09T15:07:36;16.90;;;3.20;;
18200;SDS011;9226;47.858;9.594;2023-10-09T15:10:04;21.57;;;3.70;;
18200;SDS011;9226;47.858;9.594;2023-10-09T15:12:30;19.33;;;3.70;;
18200;SDS011;9226;47.858;9.594;2023-10-09T15:14:55;17.13;;;3.83;;
18200;SDS011;9226;47.858;9.594;2023-10-09T15:17:22;14.90;;;3.33;;
18200;SDS011;9226;47.858;9.594;2023-10-09T15:19:49;15.07;;;3.43;;
18200;SDS011;9226;47.858;9.594;2023-10-09T15:22:20;16.57;;;4.20;;
18200;SDS011;9226;47.858;9.594;2023-10-09T15:24:46;16.30;;;4.00;;
18200;SDS011;9226;47.858;9.594;2023-10-09T15:27:11;19.97;;;6.63;;
18200;SDS011;9226;47.858;9.594;2023-10-09T15:29:38;22.97;;;6.23;;
18200;SDS011;9226;47.858;9.594;2023-10-09T15:32:09;16.87;;;4.23;;
18200;SDS011;9226;47.858;9.594;2023-10-09T15:34:40;24.83;;;8.60;;
18200;SDS011;9226;47.858;9.594;2023-10-09T15:37:06;21.87;;;4.77;;
18200;SDS011;9226;47.858;9.594;2023-10-09T15:39:35;41.30;;;10.33;;
18200;SDS011;9226;47.858;9.594;2023-10-09T15:42:01;20.13;;;5.13;;
18200;SDS011;9226;47.858;9.594;2023-10-09T15:44:29;19.50;;;4.43;;
18200;SDS011;9226;47.858;9.594;2023-10-09T15:46:59;18.97;;;4.87;;
18200;SDS011;9226;47.858;9.594;2023-10-09T15:49:27;21.83;;;4.17;;
18200;SDS011;9226;47.858;9.594;2023-10-09T15:51:54;13.93;;;4.07;;
18200;SDS011;9226;47.858;9.594;2023-10-09T15:54:19;21.13;;;4.07;;
18200;SDS011;9226;47.858;9.594;2023-10-09T15:56:45;21.63;;;4.20;;
18200;SDS011;9226;47.858;9.594;2023-10-09T15:59:14;17.93;;;4.20;;